Frederick E. Bouchard — WDI7451 — position and weather

sailwx.info

Track history (hours):
 
Tides and Currents Weather Stations Pressure Air Temp Water Temp Dewpoint Dewpoint Depression Visibility Wind Speed Wind Dir Waves Ship Positions

Frederick E. Bouchard

Owner: Tug Frederick E. Bouchard Corp., Melville, NY. More information available from US FCC via Universal Licensing System and Coast Guard Vessel Documentation Center.

Last reported at 2018-Jun-20 23:38 UTC. Time now 2018-Jun-21 02:50 UTC.
Position N 41°47' W 071°22'.

Length 155 m; draft 7 m.

Type: Tug. MMSI: 367728870.

Date/timePositionNaut miles runAvg speedWind from/ knotsBaromVisibWave heightAir tempDewpointWater temp
2018-Jun-20 23:38N 41°47' W 071°22'0 0.0
2018-Jun-20 22:28N 41°47' W 071°22'0 0.0
2018-Jun-20 21:56N 41°47' W 071°22'0 0.0
2018-Jun-20 21:30N 41°47' W 071°22'0 0.0
2018-Jun-20 21:00N 41°47' W 071°22'2 3.0
2018-Jun-20 20:30N 41°45' W 071°23'4 7.9
2018-Jun-20 20:00N 41°42' W 071°20'4 8.5
2018-Jun-20 19:29N 41°38' W 071°18'136 8.7
2018-Jun-20 03:56N 40°29' W 073°53'4 9.0
2018-Jun-20 03:29N 40°30' W 073°58'4 8.2
2018-Jun-20 03:01N 40°33' W 074°02'5 9.8
2018-Jun-20 02:31N 40°38' W 074°03'3 6.6
2018-Jun-20 02:00N 40°39' W 074°08'4 0.1
2018-Jun-18 15:44N 40°37' W 074°12'1 4.9
2018-Jun-18 15:30N 40°38' W 074°12'2 5.0
2018-Jun-18 15:00N 40°39' W 074°09'4 7.1
2018-Jun-18 14:31N 40°39' W 074°04'1 2.7
2018-Jun-18 14:00N 40°40' W 074°03'0 0.3
2018-Jun-18 13:28N 40°40' W 074°03'0 0.1
2018-Jun-18 12:58N 40°40' W 074°03'0 0.0
2018-Jun-18 12:28N 40°40' W 074°03'0 0.0
2018-Jun-18 11:58N 40°40' W 074°03'0 0.0
2018-Jun-18 11:25N 40°40' W 074°03'0 0.0
2018-Jun-18 10:58N 40°40' W 074°03'0 0.0
2018-Jun-18 10:28N 40°40' W 074°03'0 0.0
2018-Jun-18 09:58N 40°40' W 074°03'0 0.0
2018-Jun-18 09:28N 40°40' W 074°03'0 0.0
2018-Jun-18 08:58N 40°40' W 074°03'0 0.0
2018-Jun-18 08:28N 40°40' W 074°03'0 0.0
2018-Jun-18 07:58N 40°40' W 074°03'0 0.0
2018-Jun-18 07:28N 40°40' W 074°03'0 0.4
2018-Jun-18 06:58N 40°40' W 074°03'0 0.1
2018-Jun-18 06:28N 40°40' W 074°03'0 0.1
2018-Jun-18 05:58N 40°40' W 074°03'0 0.1
2018-Jun-18 05:28N 40°40' W 074°03'0 0.0
2018-Jun-18 04:58N 40°40' W 074°03'0 0.0
2018-Jun-18 04:28N 40°40' W 074°03'0 0.0
2018-Jun-18 03:58N 40°40' W 074°03'0 0.0
2018-Jun-18 03:28N 40°40' W 074°03'0 0.0
2018-Jun-18 02:58N 40°40' W 074°03'0 0.1
2018-Jun-18 02:28N 40°40' W 074°02'0 0.1
2018-Jun-18 01:58N 40°40' W 074°03'0 0.3
2018-Jun-18 01:28N 40°40' W 074°03'0 0.1
2018-Jun-18 00:58N 40°40' W 074°03'0 0.0
2018-Jun-18 00:28N 40°40' W 074°03'0 0.1
2018-Jun-17 23:58N 40°40' W 074°03'0 0.1
2018-Jun-17 23:28N 40°40' W 074°03'0 0.0
2018-Jun-17 22:58N 40°40' W 074°03'0 0.0
2018-Jun-17 22:28N 40°40' W 074°03'0 0.0
2018-Jun-17 21:58N 40°40' W 074°03'0 0.0
2018-Jun-17 21:28N 40°40' W 074°03'0 0.0
2018-Jun-17 20:58N 40°40' W 074°03'0 0.0
2018-Jun-17 20:28N 40°40' W 074°03'0 0.0
2018-Jun-17 19:58N 40°40' W 074°03'0 0.0
2018-Jun-17 19:28N 40°40' W 074°03'0 0.3
2018-Jun-17 18:58N 40°40' W 074°03'0 0.2
2018-Jun-17 18:28N 40°40' W 074°03'0 0.0
2018-Jun-17 17:58N 40°40' W 074°03'0 0.0
2018-Jun-17 17:28N 40°40' W 074°03'0 0.0
2018-Jun-17 16:58N 40°40' W 074°03'0 0.0
2018-Jun-17 16:28N 40°40' W 074°03'0 0.1
2018-Jun-17 15:58N 40°40' W 074°03'0 0.0
2018-Jun-17 15:19N 40°40' W 074°03'0 0.0
2018-Jun-17 14:55N 40°40' W 074°03'0 0.1
2018-Jun-17 14:28N 40°40' W 074°02'0 0.3
2018-Jun-17 13:58N 40°40' W 074°03'0 0.0
2018-Jun-17 13:28N 40°40' W 074°03'0 0.1
2018-Jun-17 12:58N 40°40' W 074°03'0 0.1
2018-Jun-17 12:28N 40°40' W 074°03'0 0.1
2018-Jun-17 11:58N 40°40' W 074°03'0 0.1
2018-Jun-17 11:28N 40°40' W 074°03'0 0.0
2018-Jun-17 10:58N 40°40' W 074°03'0 0.0
2018-Jun-17 10:28N 40°40' W 074°03'0 0.0
2018-Jun-17 09:58N 40°40' W 074°03'0 0.0
2018-Jun-17 09:28N 40°40' W 074°03'0 0.1
2018-Jun-17 08:58N 40°40' W 074°03'0 0.0
2018-Jun-17 08:28N 40°40' W 074°03'0 0.0
2018-Jun-17 07:58N 40°40' W 074°03'0 0.0
2018-Jun-17 07:28N 40°40' W 074°03'0 0.0
2018-Jun-17 06:58N 40°40' W 074°03'0 0.0
2018-Jun-17 06:28N 40°40' W 074°03'0 0.2
2018-Jun-17 05:58N 40°40' W 074°03'0 0.3
2018-Jun-17 05:28N 40°40' W 074°03'0 0.0
2018-Jun-17 04:58N 40°40' W 074°03'0 0.0
2018-Jun-17 04:28N 40°40' W 074°03'0 0.0
2018-Jun-17 03:58N 40°40' W 074°03'0 0.0
2018-Jun-17 03:28N 40°40' W 074°03'0 0.0
2018-Jun-17 02:58N 40°40' W 074°03'0 0.0
2018-Jun-17 02:28N 40°40' W 074°03'0 0.0
2018-Jun-17 01:58N 40°40' W 074°03'0 0.0
2018-Jun-17 01:28N 40°40' W 074°03'0 0.1
2018-Jun-17 00:58N 40°40' W 074°03'0 0.3
2018-Jun-17 00:28N 40°40' W 074°03'0 0.2
2018-Jun-16 23:58N 40°40' W 074°03'0 0.0
2018-Jun-16 23:25N 40°40' W 074°03'0 0.0
2018-Jun-16 22:58N 40°40' W 074°03'0 0.1
2018-Jun-16 22:30N 40°40' W 074°03'4 7.5
2018-Jun-16 21:58N 40°36' W 074°02'114 9.3
2018-Jun-16 09:43N 41°04' W 071°37'410.1
2018-Jun-16 09:21N 41°05' W 071°32'410.5
2018-Jun-16 09:00N 41°08' W 071°29'510.0
2018-Jun-16 08:30N 41°12' W 071°26'5 9.8
2018-Jun-16 08:00N 41°17' W 071°26'13 9.1
2018-Jun-16 06:32N 41°30' W 071°21'810.4
2018-Jun-16 05:46N 41°37' W 071°18'3 9.3
2018-Jun-16 05:24N 41°41' W 071°19'4 9.0
2018-Jun-16 05:00N 41°44' W 071°22'3 6.7
2018-Jun-16 04:30N 41°47' W 071°22'0 0.0
2018-Jun-16 04:00N 41°47' W 071°22'0 0.0
2018-Jun-16 03:30N 41°47' W 071°22'0 0.0
2018-Jun-16 02:54N 41°47' W 071°22'0 0.0
2018-Jun-16 02:30N 41°47' W 071°22'0 0.0
2018-Jun-16 02:00N 41°47' W 071°22'0 0.0
2018-Jun-16 01:30N 41°47' W 071°22'0 0.0
2018-Jun-16 01:00N 41°47' W 071°22'0 0.0
2018-Jun-16 00:30N 41°47' W 071°22'0 0.0
2018-Jun-16 00:00N 41°47' W 071°22'0 0.0
2018-Jun-15 23:23N 41°47' W 071°22'0 0.0
2018-Jun-15 22:59N 41°47' W 071°22'0 0.0
2018-Jun-15 22:24N 41°47' W 071°22'0 0.0
2018-Jun-15 22:00N 41°47' W 071°22'0 0.0
2018-Jun-15 21:30N 41°47' W 071°22'0 0.0
2018-Jun-15 21:00N 41°47' W 071°22'0 0.0
2018-Jun-15 20:30N 41°47' W 071°22'0 0.0
2018-Jun-15 19:48N 41°47' W 071°22'0 0.0
2018-Jun-15 19:30N 41°47' W 071°22'0 0.0
2018-Jun-15 19:00N 41°47' W 071°22'0 0.0
2018-Jun-15 18:30N 41°47' W 071°22'0 0.0
2018-Jun-15 17:36N 41°47' W 071°22'0 0.0
2018-Jun-15 17:18N 41°47' W 071°22'0 0.0
2018-Jun-15 17:00N 41°47' W 071°22'0 0.0
2018-Jun-15 16:24N 41°47' W 071°22'0 0.0
2018-Jun-15 15:48N 41°47' W 071°22'0 0.0
2018-Jun-15 15:24N 41°47' W 071°22'0 0.0
2018-Jun-15 15:00N 41°47' W 071°22'0 0.0
2018-Jun-15 14:30N 41°47' W 071°22'0 0.0
2018-Jun-15 13:48N 41°47' W 071°22'0 0.0
2018-Jun-15 13:30N 41°47' W 071°22'0 0.0
2018-Jun-15 13:00N 41°47' W 071°22'0 0.0
2018-Jun-15 12:30N 41°47' W 071°22'0 0.0
2018-Jun-15 12:00N 41°47' W 071°22'0 0.0
2018-Jun-15 11:30N 41°47' W 071°22'0 0.0
2018-Jun-15 11:00N 41°47' W 071°22'0 0.0
2018-Jun-15 10:24N 41°47' W 071°22'0 0.0
2018-Jun-15 10:00N 41°47' W 071°22'0 0.0
2018-Jun-15 09:30N 41°47' W 071°22'0 0.0
2018-Jun-15 09:00N 41°47' W 071°22'0 0.0
2018-Jun-15 08:30N 41°47' W 071°22'0 0.0
2018-Jun-15 08:00N 41°47' W 071°22'0 0.0
2018-Jun-15 07:29N 41°47' W 071°22'2 3.3
2018-Jun-15 07:00N 41°45' W 071°22'5 9.2
2018-Jun-15 06:29N 41°41' W 071°19'140 8.3
2018-Jun-14 13:41N 40°27' W 073°56'16 1.7
2018-Jun-14 04:27N 40°36' W 074°12'0 0.0
2018-Jun-13 22:12N 40°36' W 074°12'0 0.0
2018-Jun-13 21:51N 40°36' W 074°12'0 0.0
2018-Jun-13 21:24N 40°36' W 074°12'0 0.0
2018-Jun-13 21:00N 40°36' W 074°12'0 0.0
2018-Jun-13 20:27N 40°36' W 074°12'0 0.0
2018-Jun-13 19:57N 40°36' W 074°12'0 0.0
2018-Jun-13 19:03N 40°36' W 074°12'0 0.0
2018-Jun-13 16:51N 40°36' W 074°12'0 0.0
2018-Jun-13 16:03N 40°36' W 074°12'0 0.0
2018-Jun-13 15:57N 40°36' W 074°12'0 0.0
2018-Jun-13 12:27N 40°36' W 074°12'0 0.0
2018-Jun-13 11:15N 40°36' W 074°12'0 0.0
2018-Jun-13 10:51N 40°36' W 074°12'0 0.0
2018-Jun-13 10:30N 40°36' W 074°12'0 0.0
2018-Jun-13 09:54N 40°36' W 074°12'0 0.0
2018-Jun-13 09:25N 40°36' W 074°12'0 0.0
2018-Jun-13 08:59N 40°36' W 074°12'0 0.0
2018-Jun-13 08:30N 40°36' W 074°12'0 0.1
2018-Jun-13 07:42N 40°36' W 074°12'1 5.4
2018-Jun-13 07:30N 40°38' W 074°12'4 7.8
2018-Jun-13 07:00N 40°39' W 074°07'3 5.6
2018-Jun-13 06:30N 40°39' W 074°04'2 3.5
2018-Jun-13 06:00N 40°40' W 074°02'0 0.1
2018-Jun-13 05:29N 40°40' W 074°02'0 0.0
2018-Jun-13 04:59N 40°40' W 074°02'0 0.0
2018-Jun-13 04:29N 40°40' W 074°02'0 0.0
2018-Jun-13 03:59N 40°40' W 074°02'0 0.1
2018-Jun-13 03:29N 40°40' W 074°02'0 0.1
2018-Jun-13 02:59N 40°40' W 074°02'0 0.0
2018-Jun-13 02:29N 40°40' W 074°02'0 0.1
2018-Jun-13 01:59N 40°40' W 074°02'0 0.0
2018-Jun-13 01:29N 40°40' W 074°02'0 0.0
2018-Jun-13 00:59N 40°40' W 074°02'0 0.0
2018-Jun-13 00:29N 40°40' W 074°02'0 0.0
2018-Jun-12 23:59N 40°40' W 074°02'0 0.0
2018-Jun-12 23:29N 40°40' W 074°02'1 2.5
2018-Jun-12 23:00N 40°39' W 074°03'3 6.4
2018-Jun-12 22:30N 40°39' W 074°07'1 0.4
2018-Jun-12 18:57N 40°39' W 074°05'0 0.0
2018-Jun-12 17:25N 40°39' W 074°05'2 4.2
2018-Jun-12 17:00N 40°39' W 074°03'1 2.4
2018-Jun-12 16:30N 40°40' W 074°02'0 0.0
2018-Jun-12 16:00N 40°40' W 074°02'0 0.0
2018-Jun-12 15:30N 40°40' W 074°02'0 0.0
2018-Jun-12 15:00N 40°40' W 074°02'0 0.0
2018-Jun-12 14:30N 40°40' W 074°02'0 0.0
2018-Jun-12 14:00N 40°40' W 074°02'0 0.3
2018-Jun-12 13:30N 40°40' W 074°02'0 0.1
2018-Jun-12 13:00N 40°40' W 074°02'0 0.0
2018-Jun-12 12:30N 40°40' W 074°02'0 0.0
2018-Jun-12 12:00N 40°40' W 074°02'0 0.0
2018-Jun-12 11:30N 40°40' W 074°02'0 0.0
2018-Jun-12 11:00N 40°40' W 074°02'0 0.0
2018-Jun-12 10:30N 40°40' W 074°02'0 0.0
2018-Jun-12 09:54N 40°40' W 074°02'0 0.0
2018-Jun-12 09:30N 40°40' W 074°02'0 0.1
2018-Jun-12 07:21N 40°40' W 074°02'0 0.0
2018-Jun-12 07:00N 40°40' W 074°02'0 0.0
2018-Jun-12 06:21N 40°40' W 074°02'0 0.0
2018-Jun-12 05:51N 40°40' W 074°02'0 0.0
2018-Jun-12 00:09N 40°40' W 074°02'0 0.1
2018-Jun-12 00:00N 40°40' W 074°02'0 0.0
2018-Jun-11 23:30N 40°40' W 074°02'0 0.1
2018-Jun-11 22:57N 40°40' W 074°02'0 0.0
2018-Jun-11 21:18N 40°40' W 074°02'0 0.0
2018-Jun-11 20:39N 40°40' W 074°02'0 0.0
2018-Jun-11 11:21N 40°40' W 074°02'0 0.0
2018-Jun-11 10:57N 40°40' W 074°02'0 0.0
2018-Jun-11 10:27N 40°40' W 074°02'0 0.0
2018-Jun-11 10:00N 40°40' W 074°02'0 0.0
2018-Jun-11 09:30N 40°40' W 074°02'0 0.0
2018-Jun-11 08:51N 40°40' W 074°02'0 0.0
2018-Jun-11 08:24N 40°40' W 074°02'0 0.3
2018-Jun-11 07:57N 40°40' W 074°02'0 0.0
2018-Jun-11 07:30N 40°40' W 074°02'0 0.0
2018-Jun-11 07:00N 40°40' W 074°02'0 0.0
2018-Jun-11 06:30N 40°40' W 074°02'0 0.1
2018-Jun-11 06:00N 40°40' W 074°02'0 0.1
2018-Jun-11 05:30N 40°40' W 074°02'0 0.0
2018-Jun-11 05:00N 40°40' W 074°02'0 0.0
2018-Jun-11 04:30N 40°40' W 074°02'0 0.0
2018-Jun-11 04:00N 40°40' W 074°02'0 0.0
2018-Jun-11 03:30N 40°40' W 074°02'0 0.0
2018-Jun-11 03:00N 40°40' W 074°02'0 0.1
2018-Jun-11 02:30N 40°40' W 074°02'0 0.0
2018-Jun-11 02:00N 40°40' W 074°02'0 0.0
2018-Jun-11 01:30N 40°40' W 074°02'0 0.2
2018-Jun-11 01:00N 40°40' W 074°02'0 0.2
2018-Jun-11 00:30N 40°40' W 074°02'0 0.0
2018-Jun-11 00:00N 40°40' W 074°02'  
Track history (hours):
 
Tides and Currents Weather Stations Pressure Air Temp Water Temp Dewpoint Dewpoint Depression Visibility Wind Speed Wind Dir Waves Ship Positions

Frederick E. Bouchard

Owner: Tug Frederick E. Bouchard Corp., Melville, NY. More information available from US FCC via Universal Licensing System and Coast Guard Vessel Documentation Center.

Last reported at 2018-Jun-20 23:38 UTC. Time now 2018-Jun-21 02:50 UTC.
Position N 41°47' W 071°22'.

Length 155 m; draft 7 m.

Type: Tug. MMSI: 367728870.

Date/timePositionNaut miles runAvg speedWind from/ knotsBaromVisibWave heightAir tempDewpointWater temp
2018-Jun-20 23:38N 41°47' W 071°22'0 0.0
2018-Jun-20 22:28N 41°47' W 071°22'0 0.0
2018-Jun-20 21:56N 41°47' W 071°22'0 0.0
2018-Jun-20 21:30N 41°47' W 071°22'0 0.0
2018-Jun-20 21:00N 41°47' W 071°22'2 3.0
2018-Jun-20 20:30N 41°45' W 071°23'4 7.9
2018-Jun-20 20:00N 41°42' W 071°20'4 8.5
2018-Jun-20 19:29N 41°38' W 071°18'136 8.7
2018-Jun-20 03:56N 40°29' W 073°53'4 9.0
2018-Jun-20 03:29N 40°30' W 073°58'4 8.2
2018-Jun-20 03:01N 40°33' W 074°02'5 9.8
2018-Jun-20 02:31N 40°38' W 074°03'3 6.6
2018-Jun-20 02:00N 40°39' W 074°08'4 0.1
2018-Jun-18 15:44N 40°37' W 074°12'1 4.9
2018-Jun-18 15:30N 40°38' W 074°12'2 5.0
2018-Jun-18 15:00N 40°39' W 074°09'4 7.1
2018-Jun-18 14:31N 40°39' W 074°04'1 2.7
2018-Jun-18 14:00N 40°40' W 074°03'0 0.3
2018-Jun-18 13:28N 40°40' W 074°03'0 0.1
2018-Jun-18 12:58N 40°40' W 074°03'0 0.0
2018-Jun-18 12:28N 40°40' W 074°03'0 0.0
2018-Jun-18 11:58N 40°40' W 074°03'0 0.0
2018-Jun-18 11:25N 40°40' W 074°03'0 0.0
2018-Jun-18 10:58N 40°40' W 074°03'0 0.0
2018-Jun-18 10:28N 40°40' W 074°03'0 0.0
2018-Jun-18 09:58N 40°40' W 074°03'0 0.0
2018-Jun-18 09:28N 40°40' W 074°03'0 0.0
2018-Jun-18 08:58N 40°40' W 074°03'0 0.0
2018-Jun-18 08:28N 40°40' W 074°03'0 0.0
2018-Jun-18 07:58N 40°40' W 074°03'0 0.0
2018-Jun-18 07:28N 40°40' W 074°03'0 0.4
2018-Jun-18 06:58N 40°40' W 074°03'0 0.1
2018-Jun-18 06:28N 40°40' W 074°03'0 0.1
2018-Jun-18 05:58N 40°40' W 074°03'0 0.1
2018-Jun-18 05:28N 40°40' W 074°03'0 0.0
2018-Jun-18 04:58N 40°40' W 074°03'0 0.0
2018-Jun-18 04:28N 40°40' W 074°03'0 0.0
2018-Jun-18 03:58N 40°40' W 074°03'0 0.0
2018-Jun-18 03:28N 40°40' W 074°03'0 0.0
2018-Jun-18 02:58N 40°40' W 074°03'0 0.1
2018-Jun-18 02:28N 40°40' W 074°02'0 0.1
2018-Jun-18 01:58N 40°40' W 074°03'0 0.3
2018-Jun-18 01:28N 40°40' W 074°03'0 0.1
2018-Jun-18 00:58N 40°40' W 074°03'0 0.0
2018-Jun-18 00:28N 40°40' W 074°03'0 0.1
2018-Jun-17 23:58N 40°40' W 074°03'0 0.1
2018-Jun-17 23:28N 40°40' W 074°03'0 0.0
2018-Jun-17 22:58N 40°40' W 074°03'0 0.0
2018-Jun-17 22:28N 40°40' W 074°03'0 0.0
2018-Jun-17 21:58N 40°40' W 074°03'0 0.0
2018-Jun-17 21:28N 40°40' W 074°03'0 0.0
2018-Jun-17 20:58N 40°40' W 074°03'0 0.0
2018-Jun-17 20:28N 40°40' W 074°03'0 0.0
2018-Jun-17 19:58N 40°40' W 074°03'0 0.0
2018-Jun-17 19:28N 40°40' W 074°03'0 0.3
2018-Jun-17 18:58N 40°40' W 074°03'0 0.2
2018-Jun-17 18:28N 40°40' W 074°03'0 0.0
2018-Jun-17 17:58N 40°40' W 074°03'0 0.0
2018-Jun-17 17:28N 40°40' W 074°03'0 0.0
2018-Jun-17 16:58N 40°40' W 074°03'0 0.0
2018-Jun-17 16:28N 40°40' W 074°03'0 0.1
2018-Jun-17 15:58N 40°40' W 074°03'0 0.0
2018-Jun-17 15:19N 40°40' W 074°03'0 0.0
2018-Jun-17 14:55N 40°40' W 074°03'0 0.1
2018-Jun-17 14:28N 40°40' W 074°02'0 0.3
2018-Jun-17 13:58N 40°40' W 074°03'0 0.0
2018-Jun-17 13:28N 40°40' W 074°03'0 0.1
2018-Jun-17 12:58N 40°40' W 074°03'0 0.1
2018-Jun-17 12:28N 40°40' W 074°03'0 0.1
2018-Jun-17 11:58N 40°40' W 074°03'0 0.1
2018-Jun-17 11:28N 40°40' W 074°03'0 0.0
2018-Jun-17 10:58N 40°40' W 074°03'0 0.0
2018-Jun-17 10:28N 40°40' W 074°03'0 0.0
2018-Jun-17 09:58N 40°40' W 074°03'0 0.0
2018-Jun-17 09:28N 40°40' W 074°03'0 0.1
2018-Jun-17 08:58N 40°40' W 074°03'0 0.0
2018-Jun-17 08:28N 40°40' W 074°03'0 0.0
2018-Jun-17 07:58N 40°40' W 074°03'0 0.0
2018-Jun-17 07:28N 40°40' W 074°03'0 0.0
2018-Jun-17 06:58N 40°40' W 074°03'0 0.0
2018-Jun-17 06:28N 40°40' W 074°03'0 0.2
2018-Jun-17 05:58N 40°40' W 074°03'0 0.3
2018-Jun-17 05:28N 40°40' W 074°03'0 0.0
2018-Jun-17 04:58N 40°40' W 074°03'0 0.0
2018-Jun-17 04:28N 40°40' W 074°03'0 0.0
2018-Jun-17 03:58N 40°40' W 074°03'0 0.0
2018-Jun-17 03:28N 40°40' W 074°03'0 0.0
2018-Jun-17 02:58N 40°40' W 074°03'0 0.0
2018-Jun-17 02:28N 40°40' W 074°03'0 0.0
2018-Jun-17 01:58N 40°40' W 074°03'0 0.0
2018-Jun-17 01:28N 40°40' W 074°03'0 0.1
2018-Jun-17 00:58N 40°40' W 074°03'0 0.3
2018-Jun-17 00:28N 40°40' W 074°03'0 0.2
2018-Jun-16 23:58N 40°40' W 074°03'0 0.0
2018-Jun-16 23:25N 40°40' W 074°03'0 0.0
2018-Jun-16 22:58N 40°40' W 074°03'0 0.1
2018-Jun-16 22:30N 40°40' W 074°03'4 7.5
2018-Jun-16 21:58N 40°36' W 074°02'114 9.3
2018-Jun-16 09:43N 41°04' W 071°37'410.1
2018-Jun-16 09:21N 41°05' W 071°32'410.5
2018-Jun-16 09:00N 41°08' W 071°29'510.0
2018-Jun-16 08:30N 41°12' W 071°26'5 9.8
2018-Jun-16 08:00N 41°17' W 071°26'13 9.1
2018-Jun-16 06:32N 41°30' W 071°21'810.4
2018-Jun-16 05:46N 41°37' W 071°18'3 9.3
2018-Jun-16 05:24N 41°41' W 071°19'4 9.0
2018-Jun-16 05:00N 41°44' W 071°22'3 6.7
2018-Jun-16 04:30N 41°47' W 071°22'0 0.0
2018-Jun-16 04:00N 41°47' W 071°22'0 0.0
2018-Jun-16 03:30N 41°47' W 071°22'0 0.0
2018-Jun-16 02:54N 41°47' W 071°22'0 0.0
2018-Jun-16 02:30N 41°47' W 071°22'0 0.0
2018-Jun-16 02:00N 41°47' W 071°22'0 0.0
2018-Jun-16 01:30N 41°47' W 071°22'0 0.0
2018-Jun-16 01:00N 41°47' W 071°22'0 0.0
2018-Jun-16 00:30N 41°47' W 071°22'0 0.0
2018-Jun-16 00:00N 41°47' W 071°22'0 0.0
2018-Jun-15 23:23N 41°47' W 071°22'0 0.0
2018-Jun-15 22:59N 41°47' W 071°22'0 0.0
2018-Jun-15 22:24N 41°47' W 071°22'0 0.0
2018-Jun-15 22:00N 41°47' W 071°22'0 0.0
2018-Jun-15 21:30N 41°47' W 071°22'0 0.0
2018-Jun-15 21:00N 41°47' W 071°22'0 0.0
2018-Jun-15 20:30N 41°47' W 071°22'0 0.0
2018-Jun-15 19:48N 41°47' W 071°22'0 0.0
2018-Jun-15 19:30N 41°47' W 071°22'0 0.0
2018-Jun-15 19:00N 41°47' W 071°22'0 0.0
2018-Jun-15 18:30N 41°47' W 071°22'0 0.0
2018-Jun-15 17:36N 41°47' W 071°22'0 0.0
2018-Jun-15 17:18N 41°47' W 071°22'0 0.0
2018-Jun-15 17:00N 41°47' W 071°22'0 0.0
2018-Jun-15 16:24N 41°47' W 071°22'0 0.0
2018-Jun-15 15:48N 41°47' W 071°22'0 0.0
2018-Jun-15 15:24N 41°47' W 071°22'0 0.0
2018-Jun-15 15:00N 41°47' W 071°22'0 0.0
2018-Jun-15 14:30N 41°47' W 071°22'0 0.0
2018-Jun-15 13:48N 41°47' W 071°22'0 0.0
2018-Jun-15 13:30N 41°47' W 071°22'0 0.0
2018-Jun-15 13:00N 41°47' W 071°22'0 0.0
2018-Jun-15 12:30N 41°47' W 071°22'0 0.0
2018-Jun-15 12:00N 41°47' W 071°22'0 0.0
2018-Jun-15 11:30N 41°47' W 071°22'0 0.0
2018-Jun-15 11:00N 41°47' W 071°22'0 0.0
2018-Jun-15 10:24N 41°47' W 071°22'0 0.0
2018-Jun-15 10:00N 41°47' W 071°22'0 0.0
2018-Jun-15 09:30N 41°47' W 071°22'0 0.0
2018-Jun-15 09:00N 41°47' W 071°22'0 0.0
2018-Jun-15 08:30N 41°47' W 071°22'0 0.0
2018-Jun-15 08:00N 41°47' W 071°22'0 0.0
2018-Jun-15 07:29N 41°47' W 071°22'2 3.3
2018-Jun-15 07:00N 41°45' W 071°22'5 9.2
2018-Jun-15 06:29N 41°41' W 071°19'140 8.3
2018-Jun-14 13:41N 40°27' W 073°56'16 1.7
2018-Jun-14 04:27N 40°36' W 074°12'0 0.0
2018-Jun-13 22:12N 40°36' W 074°12'0 0.0
2018-Jun-13 21:51N 40°36' W 074°12'0 0.0
2018-Jun-13 21:24N 40°36' W 074°12'0 0.0
2018-Jun-13 21:00N 40°36' W 074°12'0 0.0
2018-Jun-13 20:27N 40°36' W 074°12'0 0.0
2018-Jun-13 19:57N 40°36' W 074°12'0 0.0
2018-Jun-13 19:03N 40°36' W 074°12'0 0.0
2018-Jun-13 16:51N 40°36' W 074°12'0 0.0
2018-Jun-13 16:03N 40°36' W 074°12'0 0.0
2018-Jun-13 15:57N 40°36' W 074°12'0 0.0
2018-Jun-13 12:27N 40°36' W 074°12'0 0.0
2018-Jun-13 11:15N 40°36' W 074°12'0 0.0
2018-Jun-13 10:51N 40°36' W 074°12'0 0.0
2018-Jun-13 10:30N 40°36' W 074°12'0 0.0
2018-Jun-13 09:54N 40°36' W 074°12'0 0.0
2018-Jun-13 09:25N 40°36' W 074°12'0 0.0
2018-Jun-13 08:59N 40°36' W 074°12'0 0.0
2018-Jun-13 08:30N 40°36' W 074°12'0 0.1
2018-Jun-13 07:42N 40°36' W 074°12'1 5.4
2018-Jun-13 07:30N 40°38' W 074°12'4 7.8
2018-Jun-13 07:00N 40°39' W 074°07'3 5.6
2018-Jun-13 06:30N 40°39' W 074°04'2 3.5
2018-Jun-13 06:00N 40°40' W 074°02'0 0.1
2018-Jun-13 05:29N 40°40' W 074°02'0 0.0
2018-Jun-13 04:59N 40°40' W 074°02'0 0.0
2018-Jun-13 04:29N 40°40' W 074°02'0 0.0
2018-Jun-13 03:59N 40°40' W 074°02'0 0.1
2018-Jun-13 03:29N 40°40' W 074°02'0 0.1
2018-Jun-13 02:59N 40°40' W 074°02'0 0.0
2018-Jun-13 02:29N 40°40' W 074°02'0 0.1
2018-Jun-13 01:59N 40°40' W 074°02'0 0.0
2018-Jun-13 01:29N 40°40' W 074°02'0 0.0
2018-Jun-13 00:59N 40°40' W 074°02'0 0.0
2018-Jun-13 00:29N 40°40' W 074°02'0 0.0
2018-Jun-12 23:59N 40°40' W 074°02'0 0.0
2018-Jun-12 23:29N 40°40' W 074°02'1 2.5
2018-Jun-12 23:00N 40°39' W 074°03'3 6.4
2018-Jun-12 22:30N 40°39' W 074°07'1 0.4
2018-Jun-12 18:57N 40°39' W 074°05'0 0.0
2018-Jun-12 17:25N 40°39' W 074°05'2 4.2
2018-Jun-12 17:00N 40°39' W 074°03'1 2.4
2018-Jun-12 16:30N 40°40' W 074°02'0 0.0
2018-Jun-12 16:00N 40°40' W 074°02'0 0.0
2018-Jun-12 15:30N 40°40' W 074°02'0 0.0
2018-Jun-12 15:00N 40°40' W 074°02'0 0.0
2018-Jun-12 14:30N 40°40' W 074°02'0 0.0
2018-Jun-12 14:00N 40°40' W 074°02'0 0.3
2018-Jun-12 13:30N 40°40' W 074°02'0 0.1
2018-Jun-12 13:00N 40°40' W 074°02'0 0.0
2018-Jun-12 12:30N 40°40' W 074°02'0 0.0
2018-Jun-12 12:00N 40°40' W 074°02'0 0.0
2018-Jun-12 11:30N 40°40' W 074°02'0 0.0
2018-Jun-12 11:00N 40°40' W 074°02'0 0.0
2018-Jun-12 10:30N 40°40' W 074°02'0 0.0
2018-Jun-12 09:54N 40°40' W 074°02'0 0.0
2018-Jun-12 09:30N 40°40' W 074°02'0 0.1
2018-Jun-12 07:21N 40°40' W 074°02'0 0.0
2018-Jun-12 07:00N 40°40' W 074°02'0 0.0
2018-Jun-12 06:21N 40°40' W 074°02'0 0.0
2018-Jun-12 05:51N 40°40' W 074°02'0 0.0
2018-Jun-12 00:09N 40°40' W 074°02'0 0.1
2018-Jun-12 00:00N 40°40' W 074°02'0 0.0
2018-Jun-11 23:30N 40°40' W 074°02'0 0.1
2018-Jun-11 22:57N 40°40' W 074°02'0 0.0
2018-Jun-11 21:18N 40°40' W 074°02'0 0.0
2018-Jun-11 20:39N 40°40' W 074°02'0 0.0
2018-Jun-11 11:21N 40°40' W 074°02'0 0.0
2018-Jun-11 10:57N 40°40' W 074°02'0 0.0
2018-Jun-11 10:27N 40°40' W 074°02'0 0.0
2018-Jun-11 10:00N 40°40' W 074°02'0 0.0
2018-Jun-11 09:30N 40°40' W 074°02'0 0.0
2018-Jun-11 08:51N 40°40' W 074°02'0 0.0
2018-Jun-11 08:24N 40°40' W 074°02'0 0.3
2018-Jun-11 07:57N 40°40' W 074°02'0 0.0
2018-Jun-11 07:30N 40°40' W 074°02'0 0.0
2018-Jun-11 07:00N 40°40' W 074°02'0 0.0
2018-Jun-11 06:30N 40°40' W 074°02'0 0.1
2018-Jun-11 06:00N 40°40' W 074°02'0 0.1
2018-Jun-11 05:30N 40°40' W 074°02'0 0.0
2018-Jun-11 05:00N 40°40' W 074°02'0 0.0
2018-Jun-11 04:30N 40°40' W 074°02'0 0.0
2018-Jun-11 04:00N 40°40' W 074°02'0 0.0
2018-Jun-11 03:30N 40°40' W 074°02'0 0.0
2018-Jun-11 03:00N 40°40' W 074°02'0 0.1
2018-Jun-11 02:30N 40°40' W 074°02'0 0.0
2018-Jun-11 02:00N 40°40' W 074°02'0 0.0
2018-Jun-11 01:30N 40°40' W 074°02'0 0.2
2018-Jun-11 01:00N 40°40' W 074°02'0 0.2
2018-Jun-11 00:30N 40°40' W 074°02'0 0.0
2018-Jun-11 00:00N 40°40' W 074°02'  

Dump ship's entire track history